sensor_id;sensor_type;location;lat;lon;timestamp;temperature;humidity
52016;DHT22;38032;53.326;6.472;2023-07-13T00:00:26;16.90;99.90
52016;DHT22;38032;53.326;6.472;2023-07-13T00:02:52;16.80;99.90
52016;DHT22;38032;53.326;6.472;2023-07-13T00:05:22;16.80;99.90
52016;DHT22;38032;53.326;6.472;2023-07-13T00:07:49;16.90;99.90
52016;DHT22;38032;53.326;6.472;2023-07-13T00:10:16;16.80;99.90
52016;DHT22;38032;53.326;6.472;2023-07-13T00:12:43;16.90;99.90
52016;DHT22;38032;53.326;6.472;2023-07-13T00:15:18;16.90;99.90
52016;DHT22;38032;53.326;6.472;2023-07-13T00:17:49;17.00;99.90
52016;DHT22;38032;53.326;6.472;2023-07-13T00:20:15;17.00;99.90
52016;DHT22;38032;53.326;6.472;2023-07-13T00:22:41;16.90;99.90
52016;DHT22;38032;53.326;6.472;2023-07-13T00:25:10;17.00;99.90
52016;DHT22;38032;53.326;6.472;2023-07-13T00:27:37;17.00;99.90
52016;DHT22;38032;53.326;6.472;2023-07-13T00:30:04;17.00;99.90
52016;DHT22;38032;53.326;6.472;2023-07-13T00:32:31;17.00;99.90
52016;DHT22;38032;53.326;6.472;2023-07-13T00:34:57;17.00;99.90
52016;DHT22;38032;53.326;6.472;2023-07-13T00:37:26;17.00;99.90
52016;DHT22;38032;53.326;6.472;2023-07-13T00:39:52;17.00;99.90
52016;DHT22;38032;53.326;6.472;2023-07-13T00:42:18;17.20;99.90
52016;DHT22;38032;53.326;6.472;2023-07-13T00:45:04;17.10;99.90
52016;DHT22;38032;53.326;6.472;2023-07-13T00:47:30;17.10;99.90
52016;DHT22;38032;53.326;6.472;2023-07-13T00:49:56;17.00;99.90
52016;DHT22;38032;53.326;6.472;2023-07-13T00:52:22;17.10;99.90
52016;DHT22;38032;53.326;6.472;2023-07-13T00:54:48;17.00;99.90
52016;DHT22;38032;53.326;6.472;2023-07-13T00:57:18;17.00;99.90
52016;DHT22;38032;53.326;6.472;2023-07-13T00:59:50;17.00;99.90
52016;DHT22;38032;53.326;6.472;2023-07-13T01:02:17;16.90;99.90
52016;DHT22;38032;53.326;6.472;2023-07-13T01:04:44;16.70;99.90
52016;DHT22;38032;53.326;6.472;2023-07-13T01:07:11;17.00;99.90
52016;DHT22;38032;53.326;6.472;2023-07-13T01:09:38;16.80;99.90
52016;DHT22;38032;53.326;6.472;2023-07-13T01:12:04;16.80;99.90
52016;DHT22;38032;53.326;6.472;2023-07-13T01:14:30;17.00;99.90
52016;DHT22;38032;53.326;6.472;2023-07-13T01:16:56;16.80;99.90
52016;DHT22;38032;53.326;6.472;2023-07-13T01:19:37;16.80;99.90
52016;DHT22;38032;53.326;6.472;2023-07-13T01:22:09;16.60;99.90
52016;DHT22;38032;53.326;6.472;2023-07-13T01:24:39;17.00;99.90
52016;DHT22;38032;53.326;6.472;2023-07-13T01:27:07;16.90;99.90
52016;DHT22;38032;53.326;6.472;2023-07-13T01:29:34;16.90;99.90
52016;DHT22;38032;53.326;6.472;2023-07-13T01:32:09;17.00;99.90
52016;DHT22;38032;53.326;6.472;2023-07-13T01:34:36;16.70;99.90
52016;DHT22;38032;53.326;6.472;2023-07-13T01:37:04;16.90;99.90
52016;DHT22;38032;53.326;6.472;2023-07-13T01:39:31;16.80;99.90
52016;DHT22;38032;53.326;6.472;2023-07-13T01:41:57;17.00;99.90
52016;DHT22;38032;53.326;6.472;2023-07-13T01:44:23;16.80;99.90
52016;DHT22;38032;53.326;6.472;2023-07-13T01:46:49;16.90;99.90
52016;DHT22;38032;53.326;6.472;2023-07-13T01:49:15;16.90;99.90
52016;DHT22;38032;53.326;6.472;2023-07-13T01:51:41;16.90;99.90
52016;DHT22;38032;53.326;6.472;2023-07-13T01:54:07;16.90;99.90
52016;DHT22;38032;53.326;6.472;2023-07-13T01:56:33;16.80;99.90
52016;DHT22;38032;53.326;6.472;2023-07-13T01:58:59;16.90;99.90
52016;DHT22;38032;53.326;6.472;2023-07-13T02:01:25;16.80;99.90
52016;DHT22;38032;53.326;6.472;2023-07-13T02:03:51;16.90;99.90
52016;DHT22;38032;53.326;6.472;2023-07-13T02:06:17;16.70;99.90
52016;DHT22;38032;53.326;6.472;2023-07-13T02:08:43;17.00;99.90
52016;DHT22;38032;53.326;6.472;2023-07-13T02:11:09;16.80;99.90
52016;DHT22;38032;53.326;6.472;2023-07-13T02:13:35;16.80;99.90
52016;DHT22;38032;53.326;6.472;2023-07-13T02:16:01;17.00;99.90
52016;DHT22;38032;53.326;6.472;2023-07-13T02:18:27;16.80;99.90
52016;DHT22;38032;53.326;6.472;2023-07-13T02:20:53;16.60;99.90
52016;DHT22;38032;53.326;6.472;2023-07-13T02:23:19;16.90;99.90
52016;DHT22;38032;53.326;6.472;2023-07-13T02:25:45;16.70;99.90
52016;DHT22;38032;53.326;6.472;2023-07-13T02:28:11;16.80;99.90
52016;DHT22;38032;53.326;6.472;2023-07-13T02:30:37;16.70;99.90
52016;DHT22;38032;53.326;6.472;2023-07-13T02:33:04;16.50;99.90
52016;DHT22;38032;53.326;6.472;2023-07-13T02:35:30;16.60;99.90
52016;DHT22;38032;53.326;6.472;2023-07-13T02:37:56;16.60;99.90
52016;DHT22;38032;53.326;6.472;2023-07-13T02:40:23;16.60;99.90
52016;DHT22;38032;53.326;6.472;2023-07-13T02:42:48;16.60;99.90
52016;DHT22;38032;53.326;6.472;2023-07-13T02:45:14;16.30;99.90
52016;DHT22;38032;53.326;6.472;2023-07-13T02:47:41;16.50;99.90
52016;DHT22;38032;53.326;6.472;2023-07-13T02:50:08;16.50;99.90
52016;DHT22;38032;53.326;6.472;2023-07-13T02:52:34;16.60;99.90
52016;DHT22;38032;53.326;6.472;2023-07-13T02:55:00;16.60;99.90
52016;DHT22;38032;53.326;6.472;2023-07-13T02:57:26;16.60;99.90
52016;DHT22;38032;53.326;6.472;2023-07-13T02:59:53;16.70;99.90
52016;DHT22;38032;53.326;6.472;2023-07-13T03:02:20;16.70;99.90
52016;DHT22;38032;53.326;6.472;2023-07-13T03:04:46;16.70;99.90
52016;DHT22;38032;53.326;6.472;2023-07-13T03:07:12;16.60;99.90
52016;DHT22;38032;53.326;6.472;2023-07-13T03:09:39;16.70;99.90
52016;DHT22;38032;53.326;6.472;2023-07-13T03:12:06;16.60;99.90
52016;DHT22;38032;53.326;6.472;2023-07-13T03:14:32;16.70;99.90
52016;DHT22;38032;53.326;6.472;2023-07-13T03:16:58;16.70;99.90
52016;DHT22;38032;53.326;6.472;2023-07-13T03:19:24;16.50;99.90
52016;DHT22;38032;53.326;6.472;2023-07-13T03:21:50;16.50;99.90
52016;DHT22;38032;53.326;6.472;2023-07-13T03:24:16;16.50;99.90
52016;DHT22;38032;53.326;6.472;2023-07-13T03:26:42;16.60;99.90
52016;DHT22;38032;53.326;6.472;2023-07-13T03:29:08;16.80;99.90
52016;DHT22;38032;53.326;6.472;2023-07-13T03:31:35;16.60;99.90
52016;DHT22;38032;53.326;6.472;2023-07-13T03:34:01;17.10;99.90
52016;DHT22;38032;53.326;6.472;2023-07-13T03:36:29;16.70;99.90
52016;DHT22;38032;53.326;6.472;2023-07-13T03:38:58;16.90;99.90
52016;DHT22;38032;53.326;6.472;2023-07-13T03:41:25;16.60;99.90
52016;DHT22;38032;53.326;6.472;2023-07-13T03:43:51;16.60;99.90
52016;DHT22;38032;53.326;6.472;2023-07-13T03:46:18;16.70;99.90
52016;DHT22;38032;53.326;6.472;2023-07-13T03:48:45;16.70;99.90
52016;DHT22;38032;53.326;6.472;2023-07-13T03:51:14;16.70;99.90
52016;DHT22;38032;53.326;6.472;2023-07-13T03:53:42;16.70;99.90
52016;DHT22;38032;53.326;6.472;2023-07-13T03:56:09;16.70;99.90
52016;DHT22;38032;53.326;6.472;2023-07-13T03:58:37;16.70;99.90
52016;DHT22;38032;53.326;6.472;2023-07-13T04:01:05;16.80;99.90
52016;DHT22;38032;53.326;6.472;2023-07-13T04:03:32;16.60;99.90
52016;DHT22;38032;53.326;6.472;2023-07-13T04:05:59;16.70;99.90
52016;DHT22;38032;53.326;6.472;2023-07-13T04:08:27;16.70;99.90
52016;DHT22;38032;53.326;6.472;2023-07-13T04:10:54;16.50;99.90
52016;DHT22;38032;53.326;6.472;2023-07-13T04:13:20;16.60;99.90
52016;DHT22;38032;53.326;6.472;2023-07-13T04:15:46;16.60;99.90
52016;DHT22;38032;53.326;6.472;2023-07-13T04:18:12;16.60;99.90
52016;DHT22;38032;53.326;6.472;2023-07-13T04:20:38;16.50;99.90
52016;DHT22;38032;53.326;6.472;2023-07-13T04:23:04;16.50;99.90
52016;DHT22;38032;53.326;6.472;2023-07-13T04:25:30;16.50;99.90
52016;DHT22;38032;53.326;6.472;2023-07-13T04:27:56;16.80;99.90
52016;DHT22;38032;53.326;6.472;2023-07-13T04:30:22;16.60;99.90
52016;DHT22;38032;53.326;6.472;2023-07-13T04:32:49;16.50;99.90
52016;DHT22;38032;53.326;6.472;2023-07-13T04:35:16;16.50;99.90
52016;DHT22;38032;53.326;6.472;2023-07-13T04:37:42;16.70;99.90
52016;DHT22;38032;53.326;6.472;2023-07-13T04:40:08;16.50;99.90
52016;DHT22;38032;53.326;6.472;2023-07-13T04:42:38;16.50;99.90
52016;DHT22;38032;53.326;6.472;2023-07-13T04:45:06;16.60;99.90
52016;DHT22;38032;53.326;6.472;2023-07-13T04:47:32;16.80;99.90
52016;DHT22;38032;53.326;6.472;2023-07-13T04:49:58;16.50;99.90
52016;DHT22;38032;53.326;6.472;2023-07-13T04:52:24;16.80;99.90
52016;DHT22;38032;53.326;6.472;2023-07-13T04:54:50;16.60;99.90
52016;DHT22;38032;53.326;6.472;2023-07-13T04:57:16;16.60;99.90
52016;DHT22;38032;53.326;6.472;2023-07-13T04:59:42;16.60;99.90
52016;DHT22;38032;53.326;6.472;2023-07-13T05:02:08;16.80;99.90
52016;DHT22;38032;53.326;6.472;2023-07-13T05:04:34;16.70;99.90
52016;DHT22;38032;53.326;6.472;2023-07-13T05:07:00;16.70;99.90
52016;DHT22;38032;53.326;6.472;2023-07-13T05:09:26;16.70;99.90
52016;DHT22;38032;53.326;6.472;2023-07-13T05:11:52;16.80;99.90
52016;DHT22;38032;53.326;6.472;2023-07-13T05:14:18;16.70;99.90
52016;DHT22;38032;53.326;6.472;2023-07-13T05:16:44;16.70;99.90
52016;DHT22;38032;53.326;6.472;2023-07-13T05:19:11;16.90;99.90
52016;DHT22;38032;53.326;6.472;2023-07-13T05:21:37;16.80;99.90
52016;DHT22;38032;53.326;6.472;2023-07-13T05:24:04;16.90;99.90
52016;DHT22;38032;53.326;6.472;2023-07-13T05:26:30;16.90;99.90
52016;DHT22;38032;53.326;6.472;2023-07-13T05:28:56;17.10;99.90
52016;DHT22;38032;53.326;6.472;2023-07-13T05:31:22;17.30;99.90
52016;DHT22;38032;53.326;6.472;2023-07-13T05:33:48;17.50;99.90
52016;DHT22;38032;53.326;6.472;2023-07-13T05:36:14;17.30;99.90
52016;DHT22;38032;53.326;6.472;2023-07-13T05:38:40;17.40;99.90
52016;DHT22;38032;53.326;6.472;2023-07-13T05:41:06;17.30;99.90
52016;DHT22;38032;53.326;6.472;2023-07-13T05:43:32;17.50;99.90
52016;DHT22;38032;53.326;6.472;2023-07-13T05:45:58;17.50;99.90
52016;DHT22;38032;53.326;6.472;2023-07-13T05:48:25;17.70;99.90
52016;DHT22;38032;53.326;6.472;2023-07-13T05:50:51;17.80;99.90
52016;DHT22;38032;53.326;6.472;2023-07-13T05:53:17;17.50;99.90
52016;DHT22;38032;53.326;6.472;2023-07-13T05:55:44;17.90;99.90
52016;DHT22;38032;53.326;6.472;2023-07-13T05:58:13;17.60;99.90
52016;DHT22;38032;53.326;6.472;2023-07-13T06:00:39;17.60;99.90
52016;DHT22;38032;53.326;6.472;2023-07-13T06:03:06;17.80;99.90
52016;DHT22;38032;53.326;6.472;2023-07-13T06:05:33;17.80;99.90
52016;DHT22;38032;53.326;6.472;2023-07-13T06:08:00;17.90;99.90
52016;DHT22;38032;53.326;6.472;2023-07-13T06:10:26;18.30;99.90
52016;DHT22;38032;53.326;6.472;2023-07-13T06:12:52;18.40;99.90
52016;DHT22;38032;53.326;6.472;2023-07-13T06:15:18;18.60;99.90
52016;DHT22;38032;53.326;6.472;2023-07-13T06:17:44;18.70;99.90
52016;DHT22;38032;53.326;6.472;2023-07-13T06:20:10;19.10;99.90
52016;DHT22;38032;53.326;6.472;2023-07-13T06:22:36;19.00;99.90
52016;DHT22;38032;53.326;6.472;2023-07-13T06:25:02;19.00;99.90
52016;DHT22;38032;53.326;6.472;2023-07-13T06:27:28;19.30;99.90
52016;DHT22;38032;53.326;6.472;2023-07-13T06:29:54;19.40;99.90
52016;DHT22;38032;53.326;6.472;2023-07-13T06:32:20;19.50;99.90
52016;DHT22;38032;53.326;6.472;2023-07-13T06:34:46;19.60;99.90
52016;DHT22;38032;53.326;6.472;2023-07-13T06:37:12;19.70;99.90
52016;DHT22;38032;53.326;6.472;2023-07-13T06:39:38;19.60;99.90
52016;DHT22;38032;53.326;6.472;2023-07-13T06:42:05;19.80;99.90
52016;DHT22;38032;53.326;6.472;2023-07-13T06:44:31;19.80;99.90
52016;DHT22;38032;53.326;6.472;2023-07-13T06:46:57;18.70;99.90
52016;DHT22;38032;53.326;6.472;2023-07-13T06:49:23;21.80;99.90
52016;DHT22;38032;53.326;6.472;2023-07-13T06:51:49;20.00;99.90
52016;DHT22;38032;53.326;6.472;2023-07-13T06:54:15;20.00;99.90
52016;DHT22;38032;53.326;6.472;2023-07-13T06:56:41;20.00;99.90
52016;DHT22;38032;53.326;6.472;2023-07-13T06:59:07;20.00;99.90
52016;DHT22;38032;53.326;6.472;2023-07-13T07:01:33;20.10;99.90
52016;DHT22;38032;53.326;6.472;2023-07-13T07:03:59;19.40;99.90
52016;DHT22;38032;53.326;6.472;2023-07-13T07:06:25;20.40;99.90
52016;DHT22;38032;53.326;6.472;2023-07-13T07:08:52;20.20;99.90
52016;DHT22;38032;53.326;6.472;2023-07-13T07:11:21;20.20;99.90
52016;DHT22;38032;53.326;6.472;2023-07-13T07:13:49;20.20;99.90
52016;DHT22;38032;53.326;6.472;2023-07-13T07:16:15;20.20;99.90
52016;DHT22;38032;53.326;6.472;2023-07-13T07:18:41;20.20;99.90
52016;DHT22;38032;53.326;6.472;2023-07-13T07:21:08;20.20;99.90
52016;DHT22;38032;53.326;6.472;2023-07-13T07:23:34;20.10;99.90
52016;DHT22;38032;53.326;6.472;2023-07-13T07:26:00;20.20;99.90
52016;DHT22;38032;53.326;6.472;2023-07-13T07:28:26;20.30;99.90
52016;DHT22;38032;53.326;6.472;2023-07-13T07:30:56;20.30;99.90
52016;DHT22;38032;53.326;6.472;2023-07-13T07:33:22;20.30;99.90
52016;DHT22;38032;53.326;6.472;2023-07-13T07:35:49;20.40;99.90
52016;DHT22;38032;53.326;6.472;2023-07-13T07:38:15;20.50;99.90
52016;DHT22;38032;53.326;6.472;2023-07-13T07:40:41;20.30;99.90
52016;DHT22;38032;53.326;6.472;2023-07-13T07:43:10;20.40;99.90
52016;DHT22;38032;53.326;6.472;2023-07-13T07:45:39;20.70;99.90
52016;DHT22;38032;53.326;6.472;2023-07-13T07:48:06;20.50;99.90
52016;DHT22;38032;53.326;6.472;2023-07-13T07:50:32;20.70;99.90
52016;DHT22;38032;53.326;6.472;2023-07-13T07:52:58;20.60;99.90
52016;DHT22;38032;53.326;6.472;2023-07-13T07:55:25;20.70;99.90
52016;DHT22;38032;53.326;6.472;2023-07-13T07:57:52;20.70;99.90
52016;DHT22;38032;53.326;6.472;2023-07-13T08:00:18;20.70;99.90
52016;DHT22;38032;53.326;6.472;2023-07-13T08:02:45;20.80;99.90
52016;DHT22;38032;53.326;6.472;2023-07-13T08:05:11;20.80;99.90
52016;DHT22;38032;53.326;6.472;2023-07-13T08:07:38;20.60;99.90
52016;DHT22;38032;53.326;6.472;2023-07-13T08:10:06;20.70;99.90
52016;DHT22;38032;53.326;6.472;2023-07-13T08:12:38;20.80;99.90
52016;DHT22;38032;53.326;6.472;2023-07-13T08:15:05;20.80;99.90
52016;DHT22;38032;53.326;6.472;2023-07-13T08:17:32;20.90;99.90
52016;DHT22;38032;53.326;6.472;2023-07-13T08:19:58;20.90;99.90
52016;DHT22;38032;53.326;6.472;2023-07-13T08:22:24;20.90;99.90
52016;DHT22;38032;53.326;6.472;2023-07-13T08:24:50;21.10;99.90
52016;DHT22;38032;53.326;6.472;2023-07-13T08:27:23;21.20;99.90
52016;DHT22;38032;53.326;6.472;2023-07-13T08:29:49;21.20;99.90
52016;DHT22;38032;53.326;6.472;2023-07-13T08:32:16;21.20;99.90
52016;DHT22;38032;53.326;6.472;2023-07-13T08:34:42;21.20;99.90
52016;DHT22;38032;53.326;6.472;2023-07-13T08:37:08;21.00;99.90
52016;DHT22;38032;53.326;6.472;2023-07-13T08:39:35;21.00;99.90
52016;DHT22;38032;53.326;6.472;2023-07-13T08:42:05;21.00;99.90
52016;DHT22;38032;53.326;6.472;2023-07-13T08:44:45;21.10;99.90
52016;DHT22;38032;53.326;6.472;2023-07-13T08:47:15;21.10;99.90
52016;DHT22;38032;53.326;6.472;2023-07-13T08:49:43;21.30;99.90
52016;DHT22;38032;53.326;6.472;2023-07-13T08:52:20;21.30;99.90
52016;DHT22;38032;53.326;6.472;2023-07-13T08:54:51;21.50;99.90
52016;DHT22;38032;53.326;6.472;2023-07-13T08:57:23;21.50;99.90
52016;DHT22;38032;53.326;6.472;2023-07-13T08:59:53;21.40;99.90
52016;DHT22;38032;53.326;6.472;2023-07-13T09:05:01;21.60;99.90
52016;DHT22;38032;53.326;6.472;2023-07-13T09:07:50;21.70;99.90
52016;DHT22;38032;53.326;6.472;2023-07-13T09:10:20;21.60;99.90
52016;DHT22;38032;53.326;6.472;2023-07-13T09:13:05;21.60;99.90
52016;DHT22;38032;53.326;6.472;2023-07-13T09:15:39;21.60;99.90
52016;DHT22;38032;53.326;6.472;2023-07-13T09:18:31;21.60;99.90
52016;DHT22;38032;53.326;6.472;2023-07-13T09:21:03;21.60;99.90
52016;DHT22;38032;53.326;6.472;2023-07-13T09:23:30;21.40;99.90
52016;DHT22;38032;53.326;6.472;2023-07-13T09:26:11;21.30;99.90
52016;DHT22;38032;53.326;6.472;2023-07-13T09:28:42;21.20;99.90
52016;DHT22;38032;53.326;6.472;2023-07-13T09:31:13;21.20;99.90
52016;DHT22;38032;53.326;6.472;2023-07-13T09:33:40;21.70;99.90
52016;DHT22;38032;53.326;6.472;2023-07-13T09:36:23;23.10;99.90
52016;DHT22;38032;53.326;6.472;2023-07-13T09:41:57;25.40;97.60
52016;DHT22;38032;53.326;6.472;2023-07-13T09:44:36;25.80;95.90
52016;DHT22;38032;53.326;6.472;2023-07-13T09:47:03;25.40;93.10
52016;DHT22;38032;53.326;6.472;2023-07-13T09:49:40;24.90;93.40
52016;DHT22;38032;53.326;6.472;2023-07-13T09:52:11;24.40;92.70
52016;DHT22;38032;53.326;6.472;2023-07-13T09:54:38;24.20;92.60
52016;DHT22;38032;53.326;6.472;2023-07-13T09:57:12;24.00;92.60
52016;DHT22;38032;53.326;6.472;2023-07-13T09:59:43;23.80;92.70
52016;DHT22;38032;53.326;6.472;2023-07-13T10:02:28;23.60;92.70
52016;DHT22;38032;53.326;6.472;2023-07-13T10:05:01;23.90;93.70
52016;DHT22;38032;53.326;6.472;2023-07-13T10:07:30;24.20;93.10
52016;DHT22;38032;53.326;6.472;2023-07-13T10:09:58;24.30;91.70
52016;DHT22;38032;53.326;6.472;2023-07-13T10:12:27;25.20;91.70
52016;DHT22;38032;53.326;6.472;2023-07-13T10:14:56;26.30;91.30
52016;DHT22;38032;53.326;6.472;2023-07-13T10:17:28;26.80;87.50
52016;DHT22;38032;53.326;6.472;2023-07-13T10:20:01;26.80;84.10
52016;DHT22;38032;53.326;6.472;2023-07-13T10:22:53;27.50;80.90
52016;DHT22;38032;53.326;6.472;2023-07-13T10:25:23;28.60;79.10
52016;DHT22;38032;53.326;6.472;2023-07-13T10:27:53;29.60;75.30
52016;DHT22;38032;53.326;6.472;2023-07-13T10:30:27;30.20;72.10
52016;DHT22;38032;53.326;6.472;2023-07-13T10:32:58;30.00;68.60
52016;DHT22;38032;53.326;6.472;2023-07-13T10:35:26;29.50;67.30
52016;DHT22;38032;53.326;6.472;2023-07-13T10:38:02;29.10;66.70
52016;DHT22;38032;53.326;6.472;2023-07-13T10:40:37;29.20;68.20
52016;DHT22;38032;53.326;6.472;2023-07-13T10:43:18;29.90;68.20
52016;DHT22;38032;53.326;6.472;2023-07-13T10:45:46;30.60;67.20
52016;DHT22;38032;53.326;6.472;2023-07-13T10:48:16;30.90;65.30
52016;DHT22;38032;53.326;6.472;2023-07-13T10:50:45;30.80;63.80
52016;DHT22;38032;53.326;6.472;2023-07-13T10:56:33;30.60;62.50
52016;DHT22;38032;53.326;6.472;2023-07-13T11:01:55;31.00;63.40
52016;DHT22;38032;53.326;6.472;2023-07-13T11:04:22;31.30;63.00
52016;DHT22;38032;53.326;6.472;2023-07-13T11:06:55;31.30;61.90
52016;DHT22;38032;53.326;6.472;2023-07-13T11:12:00;31.30;62.30
52016;DHT22;38032;53.326;6.472;2023-07-13T11:14:30;31.30;62.10
52016;DHT22;38032;53.326;6.472;2023-07-13T11:19:54;30.80;62.40
52016;DHT22;38032;53.326;6.472;2023-07-13T11:22:44;30.70;63.00
52016;DHT22;38032;53.326;6.472;2023-07-13T11:25:28;30.80;63.80
52016;DHT22;38032;53.326;6.472;2023-07-13T11:30:39;30.40;62.50
52016;DHT22;38032;53.326;6.472;2023-07-13T11:33:21;30.00;62.10
52016;DHT22;38032;53.326;6.472;2023-07-13T11:35:58;29.70;62.20
52016;DHT22;38032;53.326;6.472;2023-07-13T11:38:34;29.40;62.50
52016;DHT22;38032;53.326;6.472;2023-07-13T11:41:07;29.10;63.80
52016;DHT22;38032;53.326;6.472;2023-07-13T11:43:33;29.00;64.50
52016;DHT22;38032;53.326;6.472;2023-07-13T11:46:14;29.00;65.20
52016;DHT22;38032;53.326;6.472;2023-07-13T11:48:47;29.00;65.60
52016;DHT22;38032;53.326;6.472;2023-07-13T11:51:21;28.80;64.50
52016;DHT22;38032;53.326;6.472;2023-07-13T11:53:50;28.80;66.40
52016;DHT22;38032;53.326;6.472;2023-07-13T11:56:17;28.70;67.00
52016;DHT22;38032;53.326;6.472;2023-07-13T11:58:44;28.60;66.40
52016;DHT22;38032;53.326;6.472;2023-07-13T12:01:18;28.40;66.20
52016;DHT22;38032;53.326;6.472;2023-07-13T12:03:46;28.30;66.40
52016;DHT22;38032;53.326;6.472;2023-07-13T12:06:29;28.10;66.70
52016;DHT22;38032;53.326;6.472;2023-07-13T12:08:58;27.90;67.70
52016;DHT22;38032;53.326;6.472;2023-07-13T12:11:25;27.80;67.60
52016;DHT22;38032;53.326;6.472;2023-07-13T12:13:50;27.70;67.40
52016;DHT22;38032;53.326;6.472;2023-07-13T12:18:49;27.40;67.00
52016;DHT22;38032;53.326;6.472;2023-07-13T12:21:19;27.20;67.00
52016;DHT22;38032;53.326;6.472;2023-07-13T12:23:48;27.00;68.10
52016;DHT22;38032;53.326;6.472;2023-07-13T12:26:17;26.80;82.50
52016;DHT22;38032;53.326;6.472;2023-07-13T12:28:48;26.50;91.20
52016;DHT22;38032;53.326;6.472;2023-07-13T12:31:33;26.20;85.60
52016;DHT22;38032;53.326;6.472;2023-07-13T12:34:02;25.90;88.50
52016;DHT22;38032;53.326;6.472;2023-07-13T12:36:32;25.80;93.70
52016;DHT22;38032;53.326;6.472;2023-07-13T12:39:04;25.30;92.20
52016;DHT22;38032;53.326;6.472;2023-07-13T12:41:33;25.00;91.80
52016;DHT22;38032;53.326;6.472;2023-07-13T12:44:00;24.80;92.50
52016;DHT22;38032;53.326;6.472;2023-07-13T12:46:26;24.60;93.30
52016;DHT22;38032;53.326;6.472;2023-07-13T12:48:54;24.60;95.50
52016;DHT22;38032;53.326;6.472;2023-07-13T12:51:24;24.60;84.30
52016;DHT22;38032;53.326;6.472;2023-07-13T12:56:25;24.80;81.10
52016;DHT22;38032;53.326;6.472;2023-07-13T12:58:58;24.80;81.40
52016;DHT22;38032;53.326;6.472;2023-07-13T13:01:28;24.80;82.30
52016;DHT22;38032;53.326;6.472;2023-07-13T13:03:55;24.80;84.30
52016;DHT22;38032;53.326;6.472;2023-07-13T13:06:26;25.00;86.30
52016;DHT22;38032;53.326;6.472;2023-07-13T13:08:55;25.20;86.70
52016;DHT22;38032;53.326;6.472;2023-07-13T13:11:23;25.40;88.00
52016;DHT22;38032;53.326;6.472;2023-07-13T13:13:49;25.50;86.30
52016;DHT22;38032;53.326;6.472;2023-07-13T13:16:21;25.50;84.30
52016;DHT22;38032;53.326;6.472;2023-07-13T13:18:48;25.40;82.30
52016;DHT22;38032;53.326;6.472;2023-07-13T13:21:15;25.30;81.30
52016;DHT22;38032;53.326;6.472;2023-07-13T13:23:42;25.10;80.40
52016;DHT22;38032;53.326;6.472;2023-07-13T13:26:12;25.10;80.00
52016;DHT22;38032;53.326;6.472;2023-07-13T13:28:38;25.00;79.90
52016;DHT22;38032;53.326;6.472;2023-07-13T13:31:04;25.00;80.40
52016;DHT22;38032;53.326;6.472;2023-07-13T13:33:30;24.90;81.10
52016;DHT22;38032;53.326;6.472;2023-07-13T13:35:56;24.90;80.80
52016;DHT22;38032;53.326;6.472;2023-07-13T13:38:26;24.80;80.90
52016;DHT22;38032;53.326;6.472;2023-07-13T13:40:53;24.90;83.30
52016;DHT22;38032;53.326;6.472;2023-07-13T13:43:26;25.10;83.30
52016;DHT22;38032;53.326;6.472;2023-07-13T13:45:56;25.30;82.60
52016;DHT22;38032;53.326;6.472;2023-07-13T13:48:33;25.40;82.60
52016;DHT22;38032;53.326;6.472;2023-07-13T13:51:03;25.40;82.50
52016;DHT22;38032;53.326;6.472;2023-07-13T13:53:31;25.50;81.50
52016;DHT22;38032;53.326;6.472;2023-07-13T13:55:57;25.50;81.10
52016;DHT22;38032;53.326;6.472;2023-07-13T13:58:25;25.50;80.20
52016;DHT22;38032;53.326;6.472;2023-07-13T14:00:51;25.50;79.90
52016;DHT22;38032;53.326;6.472;2023-07-13T14:03:19;25.60;79.90
52016;DHT22;38032;53.326;6.472;2023-07-13T14:05:46;25.50;79.40
52016;DHT22;38032;53.326;6.472;2023-07-13T14:08:17;25.40;79.00
52016;DHT22;38032;53.326;6.472;2023-07-13T14:10:45;25.40;79.60
52016;DHT22;38032;53.326;6.472;2023-07-13T14:15:44;25.70;79.90
52016;DHT22;38032;53.326;6.472;2023-07-13T14:18:10;25.70;78.60
52016;DHT22;38032;53.326;6.472;2023-07-13T14:20:37;25.70;77.80
52016;DHT22;38032;53.326;6.472;2023-07-13T14:23:03;25.60;78.20
52016;DHT22;38032;53.326;6.472;2023-07-13T14:25:29;25.70;79.80
52016;DHT22;38032;53.326;6.472;2023-07-13T14:27:58;25.80;80.40
52016;DHT22;38032;53.326;6.472;2023-07-13T14:30:26;25.80;79.90
52016;DHT22;38032;53.326;6.472;2023-07-13T14:32:52;25.80;79.50
52016;DHT22;38032;53.326;6.472;2023-07-13T14:35:21;25.70;78.90
52016;DHT22;38032;53.326;6.472;2023-07-13T14:37:49;25.60;78.70
52016;DHT22;38032;53.326;6.472;2023-07-13T14:40:18;25.60;79.50
52016;DHT22;38032;53.326;6.472;2023-07-13T14:42:45;25.70;80.10
52016;DHT22;38032;53.326;6.472;2023-07-13T14:45:14;25.50;80.00
52016;DHT22;38032;53.326;6.472;2023-07-13T14:47:41;25.40;79.60
52016;DHT22;38032;53.326;6.472;2023-07-13T14:50:13;25.20;79.60
52016;DHT22;38032;53.326;6.472;2023-07-13T14:52:40;25.10;79.70
52016;DHT22;38032;53.326;6.472;2023-07-13T14:55:15;24.90;79.90
52016;DHT22;38032;53.326;6.472;2023-07-13T14:57:42;24.80;80.10
52016;DHT22;38032;53.326;6.472;2023-07-13T15:00:13;24.60;80.60
52016;DHT22;38032;53.326;6.472;2023-07-13T15:02:43;24.50;81.40
52016;DHT22;38032;53.326;6.472;2023-07-13T15:05:15;24.30;81.50
52016;DHT22;38032;53.326;6.472;2023-07-13T15:07:41;24.20;81.80
52016;DHT22;38032;53.326;6.472;2023-07-13T15:10:14;24.10;82.30
52016;DHT22;38032;53.326;6.472;2023-07-13T15:12:40;24.00;83.20
52016;DHT22;38032;53.326;6.472;2023-07-13T15:15:07;23.80;83.50
52016;DHT22;38032;53.326;6.472;2023-07-13T15:17:39;23.70;83.90
52016;DHT22;38032;53.326;6.472;2023-07-13T15:22:49;23.50;84.50
52016;DHT22;38032;53.326;6.472;2023-07-13T15:25:18;23.40;84.80
52016;DHT22;38032;53.326;6.472;2023-07-13T15:27:45;23.40;85.00
52016;DHT22;38032;53.326;6.472;2023-07-13T15:30:12;23.40;85.20
52016;DHT22;38032;53.326;6.472;2023-07-13T15:32:38;23.30;85.60
52016;DHT22;38032;53.326;6.472;2023-07-13T15:35:09;23.30;86.50
52016;DHT22;38032;53.326;6.472;2023-07-13T15:37:38;23.30;87.70
52016;DHT22;38032;53.326;6.472;2023-07-13T15:40:05;23.30;88.80
52016;DHT22;38032;53.326;6.472;2023-07-13T15:42:32;23.30;89.40
52016;DHT22;38032;53.326;6.472;2023-07-13T15:44:58;23.40;89.40
52016;DHT22;38032;53.326;6.472;2023-07-13T15:47:27;23.50;89.70
52016;DHT22;38032;53.326;6.472;2023-07-13T15:49:53;23.50;90.10
52016;DHT22;38032;53.326;6.472;2023-07-13T15:52:22;23.40;90.20
52016;DHT22;38032;53.326;6.472;2023-07-13T15:54:49;23.50;90.40
52016;DHT22;38032;53.326;6.472;2023-07-13T15:57:16;23.50;90.70
52016;DHT22;38032;53.326;6.472;2023-07-13T15:59:43;23.40;90.50
52016;DHT22;38032;53.326;6.472;2023-07-13T16:02:13;23.40;90.80
52016;DHT22;38032;53.326;6.472;2023-07-13T16:04:41;23.50;90.90
52016;DHT22;38032;53.326;6.472;2023-07-13T16:07:10;23.60;90.90